This is the latest recevied weather packets stored in our database for station/object W7DBO-3. If no packets are shown the sender has not sent any weather packets the latest 10 day(s).
| Time | Temp. | Humidity | Pressure | Rain* | Wind** | Luminosity | Snow |
|---|---|---|---|---|---|---|---|
| 1787583605 | 27.22° C | 47% | 1014.6 hPa | 0 mm | - | - | - |
| 1787580005 | 21.11° C | 59% | 1017.4 hPa | 0 mm | - | - | - |
| 1787576405 | 20° C | 60% | 1017.3 hPa | 0 mm | - | - | - |
| 1787572806 | 21.11° C | 62% | 1016.9 hPa | 0 mm | - | - | - |
| 1787569205 | 20° C | 58% | 1017.1 hPa | 0 mm | - | - | - |
| 1787565606 | 23.33° C | 50% | 1015 hPa | 0 mm | - | - | - |
| 1787562005 | 22.22° C | 52% | 1016.2 hPa | 0 mm | - | - | - |
| 1787558406 | 23.33° C | 46% | 1015 hPa | 0 mm | - | - | - |
| 1787554806 | 22.78° C | 48% | 1015.4 hPa | 0 mm | - | - | - |
| 1787551205 | 24.44° C | 41% | 1013.8 hPa | 0 mm | - | - | - |
| 1787547606 | 25° C | 42% | 1014.4 hPa | 0 mm | - | - | - |
| 1787536805 | 28.33° C | 40% | 1008.3 hPa | 0 mm | - | - | - |
| 1787533205 | 33.33° C | 36% | 1005.5 hPa | 0 mm | - | - | - |
| 1787529606 | 36.67° C | 21% | 1004.3 hPa | 0 mm | - | - | - |
| 1787526006 | - | - | - | 0 mm | - | - | - |
| 1787518806 | 36.67° C | 24% | 1006.7 hPa | 0 mm | - | - | - |
| 1787515205 | 37.22° C | 28% | 1007.4 hPa | 0 mm | - | - | - |
| 1787511605 | 35° C | 30% | 1009.6 hPa | 0 mm | - | - | - |
| 1787508007 | 32.22° C | 40% | 1012 hPa | 0 mm | - | - | - |
| 1787504405 | 27.78° C | 51% | 1014.8 hPa | 0 mm | - | - | - |
| 1787500806 | 28.89° C | 48% | 1014.2 hPa | 0 mm | - | - | - |
| 1787497207 | 25.56° C | 54% | 1015.6 hPa | 0 mm | - | - | - |
| 1787493605 | 20° C | 72% | 1018.6 hPa | 0 mm | - | - | - |
| 1787486406 | 20° C | 66% | 1017.6 hPa | 0 mm | - | - | - |
| 1787482806 | 20° C | 65% | 1017.8 hPa | 0 mm | - | - | - |
* Rain latest hour (hover to see other rain measurements)
** Current wind speed in m/s (hover to see current wind gust speed)